Time;durP1;ratioP1;P1;durP2;ratioP2;P2;SDS_P1;SDS_P2;PMS_P1;PMS_P2;Temp;Humidity;BMP_temperature;BMP_pressure;BME280_temperature;BME280_humidity;BME280_pressure;Samples;Min_cycle;Max_cycle;Signal;HPM_P1;HPM_P2
2021/10/18 00:00:15;;;;;;;5.40;3.50;;;;;;;;;;4977857;28;20042;-75
2021/10/18 00:02:43;;;;;;;5.65;3.55;;;;;;;;;;4995277;28;20121;-71
2021/10/18 00:05:12;;;;;;;3.70;3.40;;;;;;;;;;4995204;28;20046;-75
2021/10/18 00:07:39;;;;;;;5.05;3.50;;;;;;;;;;4994415;28;20042;-72
2021/10/18 00:10:11;;;;;;;4.13;3.22;;;;;;;;;;4994662;28;20041;-74
2021/10/18 00:12:39;;;;;;;5.10;3.03;;;;;;;;;;4995031;28;20133;-75
2021/10/18 00:15:07;;;;;;;3.90;3.30;;;;;;;;;;4993621;28;20042;-71
2021/10/18 00:17:36;;;;;;;3.25;2.95;;;;;;;;;;4994712;28;20046;-71
2021/10/18 00:20:08;;;;;;;5.25;3.85;;;;;;;;;;4994584;28;20089;-71
2021/10/18 00:22:35;;;;;;;5.07;3.00;;;;;;;;;;4994574;28;20121;-75
2021/10/18 00:25:06;;;;;;;5.35;3.50;;;;;;;;;;4994909;28;20415;-72
2021/10/18 00:27:33;;;;;;;5.40;3.33;;;;;;;;;;4994422;28;20522;-75
2021/10/18 00:30:01;;;;;;;3.83;3.30;;;;;;;;;;4993222;28;20085;-75
2021/10/18 00:32:29;;;;;;;4.63;3.22;;;;;;;;;;4993919;28;20479;-74
2021/10/18 00:34:56;;;;;;;3.67;3.30;;;;;;;;;;4994188;28;20046;-75
2021/10/18 00:37:24;;;;;;;4.30;3.42;;;;;;;;;;4994351;28;20124;-75
2021/10/18 00:39:53;;;;;;;3.25;2.90;;;;;;;;;;4994330;28;20043;-72
2021/10/18 00:42:20;;;;;;;3.83;3.35;;;;;;;;;;4994666;28;20539;-75
2021/10/18 00:44:50;;;;;;;3.30;3.00;;;;;;;;;;4994146;28;20129;-71
2021/10/18 00:47:21;;;;;;;6.22;3.60;;;;;;;;;;4992989;28;20051;-72
2021/10/18 00:49:50;;;;;;;7.25;3.30;;;;;;;;;;4993887;28;20042;-74
2021/10/18 00:52:20;;;;;;;5.35;3.38;;;;;;;;;;4994059;28;20046;-75
2021/10/18 00:54:48;;;;;;;4.05;3.20;;;;;;;;;;4994247;28;20125;-75
2021/10/18 00:57:16;;;;;;;4.28;3.80;;;;;;;;;;4993955;28;20050;-72
2021/10/18 00:59:44;;;;;;;3.60;3.30;;;;;;;;;;4994152;28;20041;-73
2021/10/18 01:02:12;;;;;;;3.15;2.85;;;;;;;;;;4994292;28;20477;-73
2021/10/18 01:04:40;;;;;;;3.80;3.13;;;;;;;;;;4992234;28;20125;-72
2021/10/18 01:07:07;;;;;;;4.55;3.25;;;;;;;;;;4993840;28;20038;-75
2021/10/18 01:09:35;;;;;;;5.80;3.30;;;;;;;;;;4993708;28;20046;-71
2021/10/18 01:12:02;;;;;;;3.40;3.10;;;;;;;;;;4993837;28;20519;-72
2021/10/18 01:14:30;;;;;;;4.05;3.28;;;;;;;;;;4992246;28;20054;-73
2021/10/18 01:16:57;;;;;;;5.82;3.55;;;;;;;;;;4993614;28;20491;-75
2021/10/18 01:19:24;;;;;;;3.70;3.40;;;;;;;;;;4992280;28;20046;-71
2021/10/18 01:21:56;;;;;;;3.45;3.15;;;;;;;;;;4992698;28;20526;-71
2021/10/18 01:24:24;;;;;;;3.42;3.13;;;;;;;;;;4993800;28;20050;-75
2021/10/18 01:26:51;;;;;;;3.90;3.40;;;;;;;;;;4993271;28;20057;-73
2021/10/18 01:29:19;;;;;;;4.78;3.53;;;;;;;;;;4992132;28;20042;-73
2021/10/18 01:31:51;;;;;;;3.92;3.33;;;;;;;;;;4993134;28;20492;-72
2021/10/18 01:34:18;;;;;;;4.88;3.28;;;;;;;;;;4991844;28;20042;-75
2021/10/18 01:36:47;;;;;;;4.53;4.10;;;;;;;;;;4993196;28;20074;-72
2021/10/18 01:39:15;;;;;;;4.28;3.20;;;;;;;;;;4993843;28;20042;-75
2021/10/18 01:41:43;;;;;;;4.80;3.35;;;;;;;;;;4993063;28;20415;-75
2021/10/18 01:44:10;;;;;;;3.67;3.38;;;;;;;;;;4994237;28;20068;-72
2021/10/18 01:46:38;;;;;;;3.20;3.00;;;;;;;;;;4997289;28;20511;-72
2021/10/18 01:49:05;;;;;;;7.25;3.50;;;;;;;;;;4995685;28;20046;-72
2021/10/18 01:51:35;;;;;;;4.63;3.63;;;;;;;;;;4996081;28;20252;-73
2021/10/18 01:54:03;;;;;;;3.50;3.20;;;;;;;;;;4996093;28;20411;-71
2021/10/18 01:56:31;;;;;;;3.40;3.08;;;;;;;;;;4997441;28;20464;-75
2021/10/18 01:58:59;;;;;;;4.05;3.63;;;;;;;;;;4997690;28;20407;-75
2021/10/18 02:01:27;;;;;;;3.72;3.40;;;;;;;;;;4997194;28;20048;-75
2021/10/18 02:03:55;;;;;;;3.83;3.53;;;;;;;;;;4995836;28;20046;-73
2021/10/18 02:06:22;;;;;;;3.85;3.47;;;;;;;;;;4997109;28;20483;-71
2021/10/18 02:08:50;;;;;;;4.22;3.65;;;;;;;;;;4996921;28;20396;-73
2021/10/18 02:11:17;;;;;;;4.40;3.40;;;;;;;;;;4997004;28;20575;-72
2021/10/18 02:13:46;;;;;;;4.97;3.50;;;;;;;;;;4997081;28;20057;-75
2021/10/18 02:16:13;;;;;;;4.70;3.17;;;;;;;;;;4995745;28;20042;-73
2021/10/18 02:18:41;;;;;;;6.18;3.45;;;;;;;;;;4995308;28;20097;-72
2021/10/18 02:21:08;;;;;;;4.22;3.08;;;;;;;;;;4996842;28;20046;-71
2021/10/18 02:23:36;;;;;;;4.18;3.03;;;;;;;;;;4996959;28;20046;-71
2021/10/18 02:26:03;;;;;;;8.30;3.72;;;;;;;;;;4996625;28;20041;-71
2021/10/18 02:28:32;;;;;;;3.72;3.25;;;;;;;;;;4996816;28;20125;-75
2021/10/18 02:30:59;;;;;;;4.97;3.25;;;;;;;;;;4996193;28;20061;-75
2021/10/18 02:33:27;;;;;;;3.88;3.10;;;;;;;;;;4996043;28;20097;-75
2021/10/18 02:35:55;;;;;;;3.40;3.10;;;;;;;;;;4996981;28;20053;-74
2021/10/18 02:38:22;;;;;;;6.82;3.40;;;;;;;;;;4996702;28;20045;-75
2021/10/18 02:40:50;;;;;;;3.30;3.00;;;;;;;;;;4996095;28;20042;-71
2021/10/18 02:43:18;;;;;;;3.33;3.03;;;;;;;;;;4996658;28;20046;-74
2021/10/18 02:45:46;;;;;;;4.68;3.30;;;;;;;;;;4994996;28;20392;-75
2021/10/18 02:48:13;;;;;;;5.18;3.20;;;;;;;;;;4994831;28;20570;-76
2021/10/18 02:50:41;;;;;;;3.72;3.30;;;;;;;;;;4996379;28;20045;-71
2021/10/18 02:53:09;;;;;;;6.43;3.28;;;;;;;;;;4996375;28;20056;-72
2021/10/18 02:55:36;;;;;;;3.53;3.08;;;;;;;;;;4994465;28;20391;-73
2021/10/18 02:58:04;;;;;;;3.88;3.13;;;;;;;;;;4995305;28;20038;-71
2021/10/18 03:00:31;;;;;;;3.10;2.90;;;;;;;;;;4995820;28;20054;-72
2021/10/18 03:02:59;;;;;;;4.13;3.05;;;;;;;;;;4996354;28;20038;-71
2021/10/18 03:05:28;;;;;;;3.53;2.90;;;;;;;;;;4996014;28;20092;-75
2021/10/18 03:07:56;;;;;;;4.55;3.10;;;;;;;;;;4994855;28;20039;-71
2021/10/18 03:10:24;;;;;;;4.32;3.00;;;;;;;;;;4995767;28;20073;-72
2021/10/18 03:12:52;;;;;;;3.50;3.20;;;;;;;;;;4995978;28;20042;-71
2021/10/18 03:15:19;;;;;;;5.72;3.30;;;;;;;;;;4995346;28;20046;-75
2021/10/18 03:17:47;;;;;;;3.33;3.03;;;;;;;;;;4996039;28;20671;-72
2021/10/18 03:20:15;;;;;;;3.50;3.20;;;;;;;;;;4995754;28;20042;-73
2021/10/18 03:22:43;;;;;;;3.10;2.72;;;;;;;;;;4995997;28;20038;-73
2021/10/18 03:25:11;;;;;;;4.72;2.83;;;;;;;;;;4995809;28;20043;-73
2021/10/18 03:27:38;;;;;;;3.50;3.20;;;;;;;;;;4995667;28;20125;-75
2021/10/18 03:30:06;;;;;;;3.90;2.53;;;;;;;;;;4994714;28;20073;-75
2021/10/18 03:32:34;;;;;;;3.97;3.05;;;;;;;;;;4994170;28;20054;-73
2021/10/18 03:35:01;;;;;;;4.38;2.92;;;;;;;;;;4994412;28;20048;-75
2021/10/18 03:37:29;;;;;;;4.68;2.70;;;;;;;;;;4995082;28;20070;-72
2021/10/18 03:39:56;;;;;;;5.10;3.00;;;;;;;;;;4995615;28;20047;-73
2021/10/18 03:42:24;;;;;;;5.07;2.97;;;;;;;;;;4995509;28;20038;-75
2021/10/18 03:44:52;;;;;;;3.90;3.03;;;;;;;;;;4994852;28;20048;-75
2021/10/18 03:47:20;;;;;;;3.40;3.10;;;;;;;;;;4995196;28;20038;-72
2021/10/18 03:49:48;;;;;;;3.17;2.83;;;;;;;;;;4995276;28;20048;-72
2021/10/18 03:52:18;;;;;;;4.47;2.72;;;;;;;;;;4993502;28;20105;-71
2021/10/18 03:54:45;;;;;;;4.70;2.85;;;;;;;;;;4995320;28;20216;-73
2021/10/18 03:57:15;;;;;;;3.00;2.80;;;;;;;;;;4995373;28;20034;-75
2021/10/18 03:59:42;;;;;;;3.00;2.72;;;;;;;;;;4993434;28;20415;-71
2021/10/18 04:02:10;;;;;;;3.45;2.67;;;;;;;;;;4993697;28;20042;-72
2021/10/18 04:04:38;;;;;;;3.10;2.72;;;;;;;;;;4994914;28;20097;-75
2021/10/18 04:07:06;;;;;;;7.30;3.17;;;;;;;;;;4992828;28;20046;-75
2021/10/18 04:09:34;;;;;;;5.28;3.13;;;;;;;;;;4995004;28;20125;-72
2021/10/18 04:12:03;;;;;;;3.35;2.97;;;;;;;;;;4993414;28;20423;-72
2021/10/18 04:14:31;;;;;;;5.18;3.17;;;;;;;;;;4994453;28;20046;-71
2021/10/18 04:16:58;;;;;;;3.95;3.00;;;;;;;;;;4993845;28;20038;-73
2021/10/18 04:19:25;;;;;;;3.20;2.95;;;;;;;;;;4994785;28;20429;-72
2021/10/18 04:21:54;;;;;;;6.13;3.00;;;;;;;;;;4994943;28;20045;-75
2021/10/18 04:24:21;;;;;;;4.53;3.10;;;;;;;;;;4993110;28;20460;-73
2021/10/18 04:26:49;;;;;;;3.13;2.83;;;;;;;;;;4994287;28;20050;-72
2021/10/18 04:29:18;;;;;;;4.65;3.20;;;;;;;;;;4993855;28;20046;-72
2021/10/18 04:31:46;;;;;;;5.13;2.90;;;;;;;;;;4994389;28;20491;-75
2021/10/18 04:34:13;;;;;;;3.95;2.50;;;;;;;;;;4992969;28;20038;-71
2021/10/18 04:36:40;;;;;;;4.30;3.00;;;;;;;;;;4993710;28;20042;-74
2021/10/18 04:39:08;;;;;;;6.07;3.30;;;;;;;;;;4994508;28;20137;-71
2021/10/18 04:41:36;;;;;;;3.85;2.92;;;;;;;;;;4993899;28;20042;-73
2021/10/18 04:44:03;;;;;;;4.45;2.90;;;;;;;;;;4992314;28;20053;-74
2021/10/18 04:46:31;;;;;;;3.05;2.85;;;;;;;;;;4992875;28;20038;-75
2021/10/18 04:48:58;;;;;;;6.03;3.20;;;;;;;;;;4993911;28;20038;-74
2021/10/18 04:51:26;;;;;;;4.88;3.13;;;;;;;;;;4992382;28;20347;-71
2021/10/18 04:53:55;;;;;;;3.80;3.33;;;;;;;;;;4993676;28;20034;-74
2021/10/18 04:56:23;;;;;;;4.97;3.20;;;;;;;;;;4993287;28;20052;-71
2021/10/18 04:58:50;;;;;;;4.95;3.13;;;;;;;;;;4993883;28;20393;-71
2021/10/18 05:01:18;;;;;;;4.45;3.22;;;;;;;;;;4993858;28;20100;-75
2021/10/18 05:03:46;;;;;;;4.18;2.70;;;;;;;;;;4993548;28;20497;-74
2021/10/18 05:06:13;;;;;;;6.65;3.40;;;;;;;;;;4993724;28;20041;-75
2021/10/18 05:08:41;;;;;;;5.68;2.90;;;;;;;;;;4993790;28;20083;-75
2021/10/18 05:11:08;;;;;;;3.30;3.00;;;;;;;;;;4993105;28;20397;-77
2021/10/18 05:13:36;;;;;;;7.32;3.30;;;;;;;;;;4993920;28;20046;-77
2021/10/18 05:16:04;;;;;;;3.50;3.08;;;;;;;;;;4992683;28;20124;-72
2021/10/18 05:18:31;;;;;;;6.78;3.30;;;;;;;;;;4991879;28;20055;-74
2021/10/18 05:21:00;;;;;;;5.10;3.22;;;;;;;;;;4992866;28;20049;-77
2021/10/18 05:23:28;;;;;;;9.75;3.40;;;;;;;;;;4993411;28;20504;-76
2021/10/18 05:26:00;;;;;;;7.88;3.33;;;;;;;;;;4993009;28;20046;-73
2021/10/18 05:28:29;;;;;;;7.97;3.47;;;;;;;;;;4993493;28;20042;-76
2021/10/18 05:30:57;;;;;;;5.07;3.45;;;;;;;;;;4991867;28;20054;-74
2021/10/18 05:33:24;;;;;;;3.22;2.90;;;;;;;;;;4991134;28;20046;-70
2021/10/18 05:35:52;;;;;;;4.93;3.42;;;;;;;;;;4992737;28;20046;-77
2021/10/18 05:38:20;;;;;;;5.32;3.10;;;;;;;;;;4993210;28;20121;-76
2021/10/18 05:40:49;;;;;;;8.32;3.40;;;;;;;;;;4992904;28;20407;-77
2021/10/18 05:43:18;;;;;;;5.40;3.05;;;;;;;;;;4993317;28;20122;-71
2021/10/18 05:45:46;;;;;;;5.53;3.20;;;;;;;;;;4993268;28;20042;-75
2021/10/18 05:48:15;;;;;;;3.83;2.92;;;;;;;;;;4992988;28;20454;-75
2021/10/18 05:50:45;;;;;;;6.75;3.03;;;;;;;;;;4993300;28;20042;-71
2021/10/18 05:53:13;;;;;;;3.97;2.80;;;;;;;;;;4975837;28;20483;-77
2021/10/18 05:55:40;;;;;;;3.30;2.75;;;;;;;;;;4992820;28;20491;-71
2021/10/18 05:58:09;;;;;;;4.35;3.10;;;;;;;;;;4991566;28;20137;-75
2021/10/18 06:00:41;;;;;;;3.20;2.67;;;;;;;;;;4992813;28;20046;-77
2021/10/18 06:03:09;;;;;;;7.68;3.45;;;;;;;;;;4992881;28;20492;-72
2021/10/18 06:05:44;;;;;;;4.80;2.90;;;;;;;;;;4992882;28;20469;-74
2021/10/18 06:08:33;;;;;;;6.75;2.92;;;;;;;;;;4992284;28;20053;-77
2021/10/18 06:11:00;;;;;;;7.32;3.03;;;;;;;;;;4991228;28;20058;-72
2021/10/18 06:13:29;;;;;;;3.65;2.55;;;;;;;;;;4991208;28;20046;-74
2021/10/18 06:15:57;;;;;;;7.15;3.25;;;;;;;;;;4992763;28;20507;-77
2021/10/18 06:18:29;;;;;;;6.28;2.92;;;;;;;;;;4992721;28;20049;-75
2021/10/18 06:20:57;;;;;;;5.57;2.70;;;;;;;;;;4992794;28;20047;-77
2021/10/18 06:23:25;;;;;;;5.43;2.90;;;;;;;;;;4992363;28;20492;-71
2021/10/18 06:25:53;;;;;;;10.98;2.95;;;;;;;;;;4992646;28;20121;-71
2021/10/18 06:28:21;;;;;;;4.72;3.10;;;;;;;;;;4992518;28;20085;-78
2021/10/18 06:30:49;;;;;;;12.00;3.20;;;;;;;;;;4993640;28;20061;-76
2021/10/18 06:33:24;;;;;;;5.20;2.85;;;;;;;;;;4995787;28;20050;-75
2021/10/18 06:35:52;;;;;;;5.05;2.85;;;;;;;;;;4996370;28;20046;-71
2021/10/18 06:38:21;;;;;;;6.90;3.08;;;;;;;;;;4995409;28;20484;-77
2021/10/18 06:40:52;;;;;;;8.60;3.00;;;;;;;;;;4995541;28;20445;-74
2021/10/18 06:43:20;;;;;;;4.38;2.72;;;;;;;;;;4995058;28;20042;-77
2021/10/18 06:45:49;;;;;;;4.30;2.90;;;;;;;;;;4995783;28;20061;-75
2021/10/18 06:48:17;;;;;;;5.88;2.85;;;;;;;;;;4995807;28;20046;-76
2021/10/18 06:50:46;;;;;;;8.45;3.10;;;;;;;;;;4995890;28;20038;-75
2021/10/18 06:53:17;;;;;;;6.72;2.50;;;;;;;;;;4995383;28;20042;-71
2021/10/18 06:55:45;;;;;;;6.63;2.92;;;;;;;;;;4994745;28;20038;-76
2021/10/18 06:58:12;;;;;;;5.22;2.90;;;;;;;;;;4995874;28;20046;-76
2021/10/18 07:00:40;;;;;;;8.73;4.50;;;;;;;;;;4995166;28;20073;-76
2021/10/18 07:03:07;;;;;;;7.40;4.25;;;;;;;;;;4995198;28;20050;-77
2021/10/18 07:05:37;;;;;;;9.23;3.45;;;;;;;;;;4995687;28;20038;-75
2021/10/18 07:08:04;;;;;;;9.00;3.90;;;;;;;;;;4995040;28;20530;-75
2021/10/18 07:10:32;;;;;;;6.22;3.20;;;;;;;;;;4994599;28;20419;-76
2021/10/18 07:12:59;;;;;;;6.22;3.50;;;;;;;;;;4995509;28;20050;-76
2021/10/18 07:15:29;;;;;;;7.82;4.28;;;;;;;;;;4995353;28;20129;-75
2021/10/18 07:17:56;;;;;;;10.15;4.10;;;;;;;;;;4995409;28;20156;-73
2021/10/18 07:20:24;;;;;;;6.82;4.40;;;;;;;;;;4994022;28;20042;-76
2021/10/18 07:22:56;;;;;;;8.63;3.47;;;;;;;;;;4994830;28;20043;-76
2021/10/18 07:25:24;;;;;;;;;;;;;;;;;;4995682;28;20121;-70
2021/10/18 07:27:51;;;;;;;7.43;3.20;;;;;;;;;;4994073;28;19922;-70
2021/10/18 07:30:20;;;;;;;11.40;3.92;;;;;;;;;;4994887;28;20050;-71
2021/10/18 07:32:48;;;;;;;11.00;3.55;;;;;;;;;;4995047;28;20046;-74
2021/10/18 07:35:21;;;;;;;6.38;2.08;;;;;;;;;;4995218;28;20055;-74
2021/10/18 07:37:54;;;;;;;8.45;3.40;;;;;;;;;;4994934;28;20507;-76
2021/10/18 07:40:22;;;;;;;6.25;3.35;;;;;;;;;;4995116;28;20045;-76
2021/10/18 07:42:50;;;;;;;9.02;3.60;;;;;;;;;;4994897;28;20046;-74
2021/10/18 07:45:19;;;;;;;9.00;3.80;;;;;;;;;;4995296;28;20042;-76
2021/10/18 07:47:46;;;;;;;10.07;3.85;;;;;;;;;;4994883;28;20034;-71
2021/10/18 07:50:14;;;;;;;6.43;3.33;;;;;;;;;;4993405;28;20046;-76
2021/10/18 07:52:44;;;;;;;8.23;3.20;;;;;;;;;;4994830;28;20046;-76
2021/10/18 07:55:13;;;;;;;3.58;2.38;;;;;;;;;;4995050;28;20070;-76
2021/10/18 07:57:42;;;;;;;8.57;3.75;;;;;;;;;;4994909;28;20042;-75
2021/10/18 08:00:11;;;;;;;5.07;3.17;;;;;;;;;;4994978;28;20073;-75
2021/10/18 08:02:39;;;;;;;4.30;2.78;;;;;;;;;;4994358;28;20049;-75
2021/10/18 08:05:07;;;;;;;4.35;2.83;;;;;;;;;;4994855;28;20467;-71
2021/10/18 08:07:40;;;;;;;7.07;3.20;;;;;;;;;;4994615;28;20518;-70
2021/10/18 08:10:08;;;;;;;9.45;2.88;;;;;;;;;;4994301;28;20050;-75
2021/10/18 08:12:37;;;;;;;4.53;3.25;;;;;;;;;;4994312;28;20042;-70
2021/10/18 08:15:04;;;;;;;6.95;3.17;;;;;;;;;;4994516;28;20125;-71
2021/10/18 08:17:32;;;;;;;7.40;3.72;;;;;;;;;;4994167;28;20423;-74
2021/10/18 08:20:02;;;;;;;5.07;3.10;;;;;;;;;;4993877;28;20042;-76
2021/10/18 08:22:29;;;;;;;6.65;3.60;;;;;;;;;;4994346;28;20412;-75
2021/10/18 08:24:57;;;;;;;7.30;3.78;;;;;;;;;;4993855;28;20043;-75
2021/10/18 08:27:29;;;;;;;5.97;3.40;;;;;;;;;;4993071;28;20113;-72
2021/10/18 08:29:56;;;;;;;5.38;2.75;;;;;;;;;;5007826;23;20053;-71
2021/10/18 08:32:24;;;;;;;7.03;3.92;;;;;;;;;;4979804;28;20077;-75
2021/10/18 08:34:52;;;;;;;4.10;2.53;;;;;;;;;;5013203;28;20046;-71
2021/10/18 08:37:19;;;;;;;6.38;2.80;;;;;;;;;;5013570;28;20046;-72
2021/10/18 08:42:26;;;;;;;4.53;2.90;;;;;;;;;;5013607;28;20386;-75
2021/10/18 08:44:53;;;;;;;5.43;3.05;;;;;;;;;;5013296;28;20042;-71
2021/10/18 08:47:26;;;;;;;7.65;3.13;;;;;;;;;;5013166;28;20038;-74
2021/10/18 08:49:54;;;;;;;4.68;3.10;;;;;;;;;;5013192;28;20077;-71
2021/10/18 08:52:24;;;;;;;3.50;2.30;;;;;;;;;;5012483;28;20411;-74
2021/10/18 08:54:51;;;;;;;5.07;2.30;;;;;;;;;;5013304;28;20073;-71
2021/10/18 08:57:19;;;;;;;4.97;2.60;;;;;;;;;;5013103;28;20414;-76
2021/10/18 08:59:47;;;;;;;4.78;2.22;;;;;;;;;;5013184;28;20048;-75
2021/10/18 09:02:14;;;;;;;4.07;2.30;;;;;;;;;;5013000;28;20049;-71
2021/10/18 09:04:42;;;;;;;5.57;2.28;;;;;;;;;;5012765;28;20456;-74
2021/10/18 09:07:16;;;;;;;3.08;2.30;;;;;;;;;;5013054;28;20073;-74
2021/10/18 09:09:54;;;;;;;6.47;2.97;;;;;;;;;;5013149;28;20116;-74
2021/10/18 09:12:24;;;;;;;3.20;2.55;;;;;;;;;;5013160;28;20046;-74
2021/10/18 09:14:53;;;;;;;4.97;2.70;;;;;;;;;;5012936;28;20038;-74
2021/10/18 09:17:33;;;;;;;7.13;3.20;;;;;;;;;;5013056;28;20506;-75
2021/10/18 09:20:21;;;;;;;3.35;2.70;;;;;;;;;;5013064;28;20049;-74
2021/10/18 09:22:50;;;;;;;5.18;2.70;;;;;;;;;;5012919;28;20049;-74
2021/10/18 09:25:38;;;;;;;2.72;2.10;;;;;;;;;;4995641;28;20042;-75
2021/10/18 09:28:16;;;;;;;3.05;2.50;;;;;;;;;;5012534;28;20117;-75
2021/10/18 09:30:46;;;;;;;6.13;2.30;;;;;;;;;;5012760;28;20459;-75
2021/10/18 09:33:16;;;;;;;2.35;2.15;;;;;;;;;;5011958;28;20046;-74
2021/10/18 09:35:45;;;;;;;2.20;2.00;;;;;;;;;;5012666;28;20056;-75
2021/10/18 09:38:12;;;;;;;5.95;1.90;;;;;;;;;;5012837;28;20049;-71
2021/10/18 09:40:40;;;;;;;2.38;2.17;;;;;;;;;;5012534;28;20380;-74
2021/10/18 09:43:21;;;;;;;6.35;2.15;;;;;;;;;;5012939;28;20061;-71
2021/10/18 10:52:02;;;;;;;2.65;2.03;;;;;;;;;;4917188;29;20080;-71
2021/10/18 10:54:34;;;;;;;3.10;2.28;;;;;;;;;;4916862;29;20055;-75
2021/10/18 10:57:09;;;;;;;1.85;1.75;;;;;;;;;;4916838;29;20139;-74
2021/10/18 10:59:36;;;;;;;4.95;2.63;;;;;;;;;;4916425;29;20139;-76
2021/10/18 11:02:10;;;;;;;3.35;2.15;;;;;;;;;;4917043;29;20418;-74
2021/10/18 11:04:39;;;;;;;3.80;2.90;;;;;;;;;;4916283;29;20056;-71
2021/10/18 11:07:09;;;;;;;2.80;2.20;;;;;;;;;;4916581;29;20048;-71
2021/10/18 11:09:42;;;;;;;3.30;1.95;;;;;;;;;;4916591;29;20393;-73
2021/10/18 11:12:11;;;;;;;2.60;2.40;;;;;;;;;;4982936;28;20133;-74
2021/10/18 11:14:39;;;;;;;5.47;2.80;;;;;;;;;;4995085;28;20046;-78
2021/10/18 11:17:06;;;;;;;4.10;2.30;;;;;;;;;;4995085;28;20042;-75
2021/10/18 11:19:38;;;;;;;3.75;2.75;;;;;;;;;;4994654;28;20044;-74
2021/10/18 11:22:05;;;;;;;4.65;2.90;;;;;;;;;;4995641;28;20042;-77
2021/10/18 11:24:40;;;;;;;7.57;2.67;;;;;;;;;;4995441;28;20046;-73
2021/10/18 11:27:08;;;;;;;6.43;2.60;;;;;;;;;;4995647;28;20053;-75
2021/10/18 11:29:36;;;;;;;3.80;2.13;;;;;;;;;;4993543;28;20492;-74
2021/10/18 11:32:09;;;;;;;4.15;2.22;;;;;;;;;;4992143;28;20056;-74
2021/10/18 11:34:36;;;;;;;2.80;2.17;;;;;;;;;;4992446;28;20049;-75
2021/10/18 11:37:04;;;;;;;3.67;2.22;;;;;;;;;;4975329;28;20046;-73
2021/10/18 11:39:32;;;;;;;6.05;2.30;;;;;;;;;;4992068;28;20058;-70
2021/10/18 11:42:00;;;;;;;2.85;2.10;;;;;;;;;;4991784;28;20046;-74
2021/10/18 11:44:49;;;;;;;3.65;2.17;;;;;;;;;;4999792;28;20050;-73
2021/10/18 11:47:23;;;;;;;2.60;2.40;;;;;;;;;;5012085;28;20141;-71
2021/10/18 11:50:08;;;;;;;3.83;2.38;;;;;;;;;;5011929;28;20466;-74
2021/10/18 11:52:41;;;;;;;2.47;2.25;;;;;;;;;;5011923;28;20071;-71
2021/10/18 11:55:09;;;;;;;3.22;2.28;;;;;;;;;;5011667;28;20042;-71
2021/10/18 11:57:42;;;;;;;2.97;2.15;;;;;;;;;;5008078;28;20188;-75
2021/10/18 12:00:13;;;;;;;3.03;2.72;;;;;;;;;;5011926;28;20096;-74
2021/10/18 12:02:44;;;;;;;4.60;2.47;;;;;;;;;;5011922;28;20049;-71
2021/10/18 12:05:14;;;;;;;9.85;2.97;;;;;;;;;;4997089;28;20052;-74
2021/10/18 12:07:46;;;;;;;11.48;2.70;;;;;;;;;;4996656;28;20580;-75
2021/10/18 12:10:15;;;;;;;6.75;5.07;;;;;;;;;;5014442;28;20072;-71
2021/10/18 12:13:02;;;;;;;5.82;3.08;;;;;;;;;;5013714;28;20141;-74
2021/10/18 12:15:29;;;;;;;5.97;2.80;;;;;;;;;;5014340;28;20073;-70
2021/10/18 12:17:58;;;;;;;2.47;2.28;;;;;;;;;;5013918;28;20046;-74
2021/10/18 12:20:25;;;;;;;4.10;2.33;;;;;;;;;;5014084;28;20048;-75
2021/10/18 12:22:59;;;;;;;4.28;2.30;;;;;;;;;;5014236;28;20038;-70
2021/10/18 12:25:27;;;;;;;4.97;2.30;;;;;;;;;;5013715;28;20045;-73
2021/10/18 12:27:57;;;;;;;5.57;2.50;;;;;;;;;;5013112;28;20042;-75
2021/10/18 12:30:41;;;;;;;4.90;2.40;;;;;;;;;;5013671;28;20058;-75
2021/10/18 12:33:13;;;;;;;8.65;2.53;;;;;;;;;;5014055;28;20038;-75
2021/10/18 12:35:41;;;;;;;5.43;2.40;;;;;;;;;;5013796;28;20129;-70
2021/10/18 12:38:09;;;;;;;7.90;2.70;;;;;;;;;;5013906;28;20440;-74
2021/10/18 12:40:38;;;;;;;6.00;2.78;;;;;;;;;;5013501;28;20038;-74
2021/10/18 12:43:06;;;;;;;7.70;3.35;;;;;;;;;;5013532;28;20041;-73
2021/10/18 12:45:35;;;;;;;3.97;2.55;;;;;;;;;;5013546;28;20046;-70
2021/10/18 12:48:04;;;;;;;3.65;2.28;;;;;;;;;;5013509;28;20046;-73
2021/10/18 12:50:37;;;;;;;3.65;2.10;;;;;;;;;;5013471;28;20050;-71
2021/10/18 12:53:12;;;;;;;4.20;2.15;;;;;;;;;;5013128;28;20046;-75
2021/10/18 12:55:40;;;;;;;4.25;2.70;;;;;;;;;;5012910;28;20046;-75
2021/10/18 12:58:21;;;;;;;5.07;2.72;;;;;;;;;;4996167;28;20060;-75
2021/10/18 13:00:50;;;;;;;4.18;2.40;;;;;;;;;;5013546;28;20475;-76
2021/10/18 13:03:20;;;;;;;6.53;2.50;;;;;;;;;;5009849;28;20041;-74
2021/10/18 13:05:49;;;;;;;3.03;2.10;;;;;;;;;;5020482;28;20042;-75
2021/10/18 13:08:18;;;;;;;1.95;1.85;;;;;;;;;;5008989;28;20045;-75
2021/10/18 13:10:49;;;;;;;4.40;2.25;;;;;;;;;;5010431;28;20038;-74
2021/10/18 13:13:18;;;;;;;4.78;2.20;;;;;;;;;;5009725;28;20073;-71
2021/10/18 13:15:54;;;;;;;4.40;2.22;;;;;;;;;;5007238;28;20128;-71
2021/10/18 13:18:26;;;;;;;2.35;2.15;;;;;;;;;;5007048;28;20061;-72
2021/10/18 13:20:58;;;;;;;2.63;2.42;;;;;;;;;;5009027;28;20414;-71
2021/10/18 13:23:30;;;;;;;3.17;2.00;;;;;;;;;;5010337;28;20455;-75
2021/10/18 13:26:00;;;;;;;2.45;2.20;;;;;;;;;;5010231;28;20057;-71
2021/10/18 13:28:28;;;;;;;2.55;2.05;;;;;;;;;;5010459;28;20473;-70
2021/10/18 13:30:56;;;;;;;2.40;1.77;;;;;;;;;;5010193;28;20527;-71
2021/10/18 13:33:23;;;;;;;3.35;2.33;;;;;;;;;;5009692;28;20046;-76
2021/10/18 13:36:00;;;;;;;2.70;2.22;;;;;;;;;;5010461;28;20049;-74
2021/10/18 13:38:27;;;;;;;2.35;2.13;;;;;;;;;;5013055;28;20433;-71
2021/10/18 13:40:57;;;;;;;3.28;2.30;;;;;;;;;;5018559;28;20041;-75
2021/10/18 13:43:24;;;;;;;3.03;2.30;;;;;;;;;;5019154;28;20045;-77
2021/10/18 13:45:52;;;;;;;4.32;2.72;;;;;;;;;;5018426;28;20038;-77
2021/10/18 13:48:21;;;;;;;5.15;2.63;;;;;;;;;;5018343;28;20049;-74
2021/10/18 13:50:49;;;;;;;3.33;2.55;;;;;;;;;;5018386;28;20056;-75
2021/10/18 13:53:20;;;;;;;5.00;2.38;;;;;;;;;;5000358;28;20041;-76
2021/10/18 13:55:49;;;;;;;2.92;2.10;;;;;;;;;;5018534;28;20042;-74
2021/10/18 13:58:17;;;;;;;5.63;2.30;;;;;;;;;;5018755;28;20045;-69
2021/10/18 14:00:44;;;;;;;4.95;2.80;;;;;;;;;;5018313;28;20499;-73
2021/10/18 14:03:13;;;;;;;4.85;2.20;;;;;;;;;;5016913;28;20100;-69
2021/10/18 14:05:43;;;;;;;3.38;2.47;;;;;;;;;;5016959;28;20407;-74
2021/10/18 14:08:10;;;;;;;2.65;2.38;;;;;;;;;;5018078;28;20045;-75
2021/10/18 14:10:38;;;;;;;4.68;2.45;;;;;;;;;;5000793;28;20054;-70
2021/10/18 14:13:07;;;;;;;5.60;2.75;;;;;;;;;;5018298;28;20050;-70
2021/10/18 14:15:35;;;;;;;4.25;2.20;;;;;;;;;;5018521;28;20137;-74
2021/10/18 14:18:03;;;;;;;3.15;2.70;;;;;;;;;;5018439;28;20044;-74
2021/10/18 14:20:30;;;;;;;4.03;2.40;;;;;;;;;;5018101;28;20518;-74
2021/10/18 14:22:58;;;;;;;3.53;2.65;;;;;;;;;;5018058;28;20040;-70
2021/10/18 14:25:25;;;;;;;3.65;2.45;;;;;;;;;;5018127;28;20034;-69
2021/10/18 14:27:53;;;;;;;3.95;2.38;;;;;;;;;;5018076;28;20042;-74
2021/10/18 14:30:21;;;;;;;3.60;2.45;;;;;;;;;;5017733;28;20054;-73
2021/10/18 14:32:53;;;;;;;3.33;2.30;;;;;;;;;;5017812;28;20042;-73
2021/10/18 14:35:21;;;;;;;3.95;2.60;;;;;;;;;;5018649;28;20046;-73
2021/10/18 14:37:49;;;;;;;3.05;2.35;;;;;;;;;;5017964;28;20049;-73
2021/10/18 14:40:17;;;;;;;3.35;2.58;;;;;;;;;;5016838;28;20042;-73
2021/10/18 14:42:44;;;;;;;3.80;2.47;;;;;;;;;;5000618;28;20411;-73
2021/10/18 14:45:13;;;;;;;4.70;2.80;;;;;;;;;;5017009;28;20129;-73
2021/10/18 14:47:40;;;;;;;4.10;2.75;;;;;;;;;;5017390;28;20513;-74
2021/10/18 14:50:09;;;;;;;3.92;2.53;;;;;;;;;;5023020;28;20116;-74
2021/10/18 14:52:37;;;;;;;5.88;2.63;;;;;;;;;;5014294;28;20044;-70
2021/10/18 14:55:06;;;;;;;2.78;2.55;;;;;;;;;;5013605;28;20049;-74
2021/10/18 14:57:34;;;;;;;4.70;2.60;;;;;;;;;;5011545;28;20541;-73
2021/10/18 15:00:02;;;;;;;6.10;2.80;;;;;;;;;;5013259;28;20046;-74
2021/10/18 15:02:29;;;;;;;5.07;2.50;;;;;;;;;;5013002;28;20464;-74
2021/10/18 15:04:57;;;;;;;5.85;2.63;;;;;;;;;;5013574;28;20048;-70
2021/10/18 15:07:24;;;;;;;4.97;2.42;;;;;;;;;;5013893;28;20042;-74
2021/10/18 15:09:52;;;;;;;3.15;2.50;;;;;;;;;;5013942;28;20042;-73
2021/10/18 15:12:22;;;;;;;5.68;2.75;;;;;;;;;;5014397;28;20050;-73
2021/10/18 15:14:49;;;;;;;6.05;2.58;;;;;;;;;;5014258;28;20124;-73
2021/10/18 15:17:16;;;;;;;2.70;2.40;;;;;;;;;;5013994;28;20513;-74
2021/10/18 15:19:44;;;;;;;4.00;2.65;;;;;;;;;;5012877;28;20492;-74
2021/10/18 15:22:15;;;;;;;3.10;2.40;;;;;;;;;;5013338;28;20099;-71
2021/10/18 15:24:44;;;;;;;4.53;2.58;;;;;;;;;;5014121;28;20084;-70
2021/10/18 15:27:13;;;;;;;4.28;2.58;;;;;;;;;;5013069;28;20661;-74
2021/10/18 15:29:44;;;;;;;4.13;2.55;;;;;;;;;;5013536;28;20046;-73
2021/10/18 15:32:12;;;;;;;5.28;3.67;;;;;;;;;;5013627;28;20462;-75
2021/10/18 15:34:41;;;;;;;5.40;2.90;;;;;;;;;;4995737;28;20061;-70
2021/10/18 15:37:10;;;;;;;5.10;3.58;;;;;;;;;;5009587;28;20041;-74
2021/10/18 15:39:38;;;;;;;6.55;2.70;;;;;;;;;;5013260;28;20046;-73
2021/10/18 15:42:05;;;;;;;6.53;3.05;;;;;;;;;;4995564;28;20419;-69
2021/10/18 15:44:34;;;;;;;6.35;3.05;;;;;;;;;;5011906;28;20467;-73
2021/10/18 15:47:02;;;;;;;6.30;2.60;;;;;;;;;;5012379;28;20045;-70
2021/10/18 15:49:30;;;;;;;5.38;2.72;;;;;;;;;;5012622;28;20053;-73
2021/10/18 15:51:58;;;;;;;6.20;3.45;;;;;;;;;;5012274;28;20046;-73
2021/10/18 15:54:31;;;;;;;3.97;2.70;;;;;;;;;;5012413;28;20522;-69
2021/10/18 15:56:58;;;;;;;5.20;2.78;;;;;;;;;;5012611;28;20045;-73
2021/10/18 15:59:26;;;;;;;3.47;2.55;;;;;;;;;;5012309;28;20088;-73
2021/10/18 16:01:53;;;;;;;7.38;2.70;;;;;;;;;;5015331;28;20044;-74